Time;durP1;ratioP1;P1;durP2;ratioP2;P2;SDS_P1;SDS_P2;PMS_P1;PMS_P2;Temp;Humidity;BMP_temperature;BMP_pressure;BME280_temperature;BME280_humidity;BME280_pressure;Samples;Min_cycle;Max_cycle;Signal;HPM_P1;HPM_P2
2023/08/24 00:02:38;;;;;;;5.18;2.15;;;;;;;19.90;100.00;101594.47;6294788;28;20048;-72
2023/08/24 00:05:40;;;;;;;2.78;2.10;;;;;;;19.89;100.00;101584.75;6276577;28;20045;-73
2023/08/24 00:08:41;;;;;;;3.05;2.08;;;;;;;19.80;100.00;101591.66;6276862;28;20049;-73
2023/08/24 00:11:44;;;;;;;3.22;2.13;;;;;;;19.80;100.00;101585.50;6277026;28;20135;-72
2023/08/24 00:14:45;;;;;;;4.43;2.05;;;;;;;19.80;100.00;101594.34;6276381;28;20202;-72
2023/08/24 00:17:47;;;;;;;3.55;1.98;;;;;;;19.77;100.00;101595.44;6277079;28;20049;-72
2023/08/24 00:20:48;;;;;;;2.47;2.10;;;;;;;19.73;100.00;101599.31;6276794;28;20064;-72
2023/08/24 00:23:50;;;;;;;2.60;1.90;;;;;;;19.66;100.00;101592.75;6276486;28;20049;-71
2023/08/24 00:26:53;;;;;;;3.13;2.13;;;;;;;19.62;100.00;101594.00;6276519;28;20059;-72
2023/08/24 00:29:54;;;;;;;2.95;1.80;;;;;;;19.58;100.00;101584.50;6276746;28;20053;-72
2023/08/24 00:32:55;;;;;;;3.58;1.90;;;;;;;19.56;100.00;101585.56;6276471;28;20474;-72
2023/08/24 00:36:00;;;;;;;1.98;1.65;;;;;;;19.49;100.00;101580.72;6276039;28;20103;-72
2023/08/24 00:39:02;;;;;;;4.00;2.15;;;;;;;19.37;100.00;101584.31;6276479;28;20055;-72
2023/08/24 00:42:05;;;;;;;2.33;1.63;;;;;;;19.35;100.00;101586.28;6276367;28;20076;-73
2023/08/24 00:45:09;;;;;;;4.95;1.65;;;;;;;19.32;100.00;101575.00;6275798;28;20126;-72
2023/08/24 00:48:10;;;;;;;3.13;2.00;;;;;;;19.28;100.00;101582.38;6276255;28;20076;-72
2023/08/24 00:51:12;;;;;;;6.05;2.22;;;;;;;19.27;100.00;101575.34;6278871;28;20052;-74
2023/08/24 00:54:13;;;;;;;2.22;1.80;;;;;;;19.26;100.00;101576.31;6300018;28;20049;-71
2023/08/24 00:57:16;;;;;;;2.38;1.90;;;;;;;19.23;100.00;101582.72;6300510;28;20052;-72
2023/08/24 01:00:18;;;;;;;3.42;1.85;;;;;;;19.22;100.00;101581.03;6300579;28;20460;-72
2023/08/24 01:03:19;;;;;;;2.17;1.83;;;;;;;19.19;100.00;101593.72;6300413;28;20456;-71
2023/08/24 01:06:21;;;;;;;2.35;1.83;;;;;;;19.15;100.00;101590.44;6300309;28;20048;-73
2023/08/24 01:09:23;;;;;;;2.70;1.90;;;;;;;19.13;100.00;101596.88;6300379;28;20055;-71
2023/08/24 01:12:33;;;;;;;5.45;1.85;;;;;;;19.08;100.00;101588.38;6299802;28;20425;-71
2023/08/24 01:15:45;;;;;;;3.53;1.55;;;;;;;19.06;100.00;101585.81;6299953;28;20049;-71
2023/08/24 01:18:47;;;;;;;5.13;1.70;;;;;;;19.03;100.00;101586.06;6300460;28;20052;-71
2023/08/24 01:21:49;;;;;;;2.80;1.55;;;;;;;18.97;100.00;101581.19;6300108;28;20059;-71
2023/08/24 01:24:58;;;;;;;3.65;1.83;;;;;;;18.94;100.00;101584.06;6299919;28;20055;-71
2023/08/24 01:28:02;;;;;;;3.97;2.00;;;;;;;18.92;100.00;101578.88;6300136;28;20356;-70
2023/08/24 01:31:05;;;;;;;3.33;1.92;;;;;;;18.90;100.00;101572.81;6300182;28;20364;-70
2023/08/24 01:34:06;;;;;;;4.93;2.00;;;;;;;18.85;100.00;101574.97;6299969;28;20052;-70
2023/08/24 01:37:08;;;;;;;2.00;1.63;;;;;;;18.83;100.00;101568.06;6299674;28;20048;-70
2023/08/24 01:40:16;;;;;;;4.22;1.83;;;;;;;18.81;100.00;101562.00;6300197;28;20045;-70
2023/08/24 01:43:21;;;;;;;2.75;2.17;;;;;;;18.78;100.00;101564.91;6299969;28;20109;-70
2023/08/24 01:46:23;;;;;;;2.50;1.90;;;;;;;18.72;100.00;101567.06;6299795;28;20048;-69
2023/08/24 01:49:26;;;;;;;2.80;1.50;;;;;;;18.64;100.00;101568.56;6299957;28;20110;-69
2023/08/24 01:52:28;;;;;;;3.72;2.13;;;;;;;18.59;100.00;101560.06;6299795;28;20459;-72
2023/08/24 01:55:29;;;;;;;2.90;1.80;;;;;;;18.58;100.00;101561.03;6299515;28;20048;-71
2023/08/24 01:58:32;;;;;;;3.70;2.00;;;;;;;18.55;100.00;101559.44;6299959;28;20055;-71
2023/08/24 02:01:34;;;;;;;2.30;1.73;;;;;;;18.57;100.00;101564.63;6299785;28;20055;-71
2023/08/24 02:04:35;;;;;;;3.38;2.03;;;;;;;18.47;100.00;101557.31;6299547;28;20041;-71
2023/08/24 02:07:37;;;;;;;2.45;1.50;;;;;;;18.45;100.00;101559.25;6298864;28;20057;-71
2023/08/24 02:10:38;;;;;;;4.30;1.77;;;;;;;18.44;100.00;101564.69;6299531;28;20345;-71
2023/08/24 02:13:41;;;;;;;2.67;1.58;;;;;;;18.40;100.00;101564.06;6299014;28;20341;-69
2023/08/24 02:16:42;;;;;;;4.22;1.65;;;;;;;18.35;100.00;101558.25;6299110;28;20076;-69
2023/08/24 02:19:43;;;;;;;2.40;1.90;;;;;;;18.39;100.00;101558.84;6299774;28;20052;-69
2023/08/24 02:22:45;;;;;;;6.10;1.80;;;;;;;18.42;100.00;101553.31;6300378;28;20052;-69
2023/08/24 02:25:46;;;;;;;2.65;1.77;;;;;;;18.30;100.00;101543.56;6303481;28;20048;-69
2023/08/24 02:28:49;;;;;;;4.78;1.80;;;;;;;18.30;100.00;101547.06;6304107;28;20063;-70
2023/08/24 02:31:50;;;;;;;5.25;1.77;;;;;;;18.26;100.00;101545.63;6303922;28;20127;-70
2023/08/24 02:34:52;;;;;;;6.38;1.88;;;;;;;18.20;100.00;101546.03;6303853;28;20047;-71
2023/08/24 02:37:54;;;;;;;2.10;1.63;;;;;;;18.18;100.00;101537.34;6304274;28;20131;-71
2023/08/24 02:41:03;;;;;;;2.08;1.80;;;;;;;18.15;100.00;101535.72;6304030;28;20125;-71
2023/08/24 02:44:06;;;;;;;6.32;1.90;;;;;;;18.08;100.00;101533.66;6303566;28;20058;-69
2023/08/24 02:47:07;;;;;;;2.75;1.73;;;;;;;18.05;100.00;101533.88;6303683;28;20049;-69
2023/08/24 02:50:10;;;;;;;4.82;1.55;;;;;;;18.01;100.00;101541.19;6303433;28;20052;-69
2023/08/24 02:53:11;;;;;;;2.35;1.65;;;;;;;18.02;100.00;101528.75;6303508;28;20134;-70
2023/08/24 02:56:12;;;;;;;3.03;1.90;;;;;;;18.05;100.00;101520.56;6303292;28;20136;-69
2023/08/24 02:59:15;;;;;;;2.53;1.92;;;;;;;18.07;100.00;101519.47;6303391;28;20060;-69
2023/08/24 03:02:16;;;;;;;2.35;1.40;;;;;;;18.03;100.00;101518.00;6303607;28;20056;-69
2023/08/24 03:05:18;;;;;;;3.97;1.90;;;;;;;17.92;100.00;101517.94;6302839;28;20048;-69
2023/08/24 03:08:19;;;;;;;3.97;1.70;;;;;;;17.90;100.00;101519.88;6303140;28;20349;-69
2023/08/24 03:11:20;;;;;;;2.42;1.70;;;;;;;17.86;100.00;101521.88;6303168;28;20345;-69
2023/08/24 03:14:23;;;;;;;4.70;2.15;;;;;;;17.84;100.00;101502.50;6302867;28;20433;-69
2023/08/24 03:17:25;;;;;;;4.30;1.60;;;;;;;17.79;100.00;101502.00;6302890;28;20368;-69
2023/08/24 03:20:26;;;;;;;5.93;1.98;;;;;;;17.74;100.00;101496.16;6303289;28;20061;-69
2023/08/24 03:23:28;;;;;;;8.15;2.00;;;;;;;17.66;100.00;101494.00;6302554;28;20051;-70
2023/08/24 03:26:29;;;;;;;4.80;1.92;;;;;;;17.57;100.00;101496.47;6302455;28;20448;-69
2023/08/24 03:29:32;;;;;;;8.20;2.28;;;;;;;17.59;100.00;101508.72;6302571;28;20055;-69
2023/08/24 03:32:33;;;;;;;4.82;2.00;;;;;;;17.58;100.00;101516.81;6302574;28;20051;-70
2023/08/24 03:35:34;;;;;;;3.58;1.70;;;;;;;17.56;100.00;101506.25;6301735;28;20045;-69
2023/08/24 03:38:36;;;;;;;5.45;1.70;;;;;;;17.64;100.00;101500.41;6302560;28;20052;-69
2023/08/24 03:41:37;;;;;;;2.42;1.90;;;;;;;17.64;100.00;101497.75;6302609;28;20136;-69
2023/08/24 03:44:40;;;;;;;3.95;1.65;;;;;;;17.58;100.00;101488.41;6301580;28;20127;-69
2023/08/24 03:47:41;;;;;;;5.95;2.20;;;;;;;17.60;100.00;101509.56;6302416;28;20052;-69
2023/08/24 03:50:43;;;;;;;3.90;2.00;;;;;;;17.45;100.00;101522.97;6302161;28;20048;-69
2023/08/24 03:53:44;;;;;;;4.32;1.83;;;;;;;17.43;100.00;101532.00;6301968;28;20044;-70
2023/08/24 03:56:46;;;;;;;6.93;2.42;;;;;;;17.48;100.00;101540.50;6301816;28;20109;-69
2023/08/24 03:59:48;;;;;;;2.83;1.90;;;;;;;17.52;100.00;101535.81;6302215;28;20087;-70
2023/08/24 04:02:50;;;;;;;3.20;2.35;;;;;;;17.51;100.00;101537.63;6302013;28;20052;-70
2023/08/24 04:05:51;;;;;;;3.88;2.72;;;;;;;17.47;100.00;101539.66;6301628;28;20049;-70
2023/08/24 04:08:53;;;;;;;3.20;2.10;;;;;;;17.49;100.00;101539.56;6301839;28;20052;-70
2023/08/24 04:11:54;;;;;;;4.47;2.20;;;;;;;17.53;100.00;101538.38;6301755;28;20514;-69
2023/08/24 04:14:57;;;;;;;3.33;2.25;;;;;;;17.60;100.00;101547.63;6301581;28;20055;-69
2023/08/24 04:17:58;;;;;;;7.13;2.45;;;;;;;17.59;100.00;101558.38;6301499;28;20049;-69
2023/08/24 04:21:00;;;;;;;3.72;2.25;;;;;;;17.62;100.00;101560.78;6301739;28;20049;-69
2023/08/24 04:24:02;;;;;;;4.85;2.45;;;;;;;17.58;100.00;101565.50;6300576;28;20452;-69
2023/08/24 04:27:03;;;;;;;3.75;2.42;;;;;;;17.58;100.00;101564.66;6301014;28;20085;-69
2023/08/24 04:30:11;;;;;;;3.38;2.28;;;;;;;17.61;100.00;101559.94;6301203;28;20102;-69
2023/08/24 04:33:13;;;;;;;4.95;2.65;;;;;;;17.65;100.00;101547.28;6300855;28;20067;-69
2023/08/24 04:36:15;;;;;;;6.13;2.83;;;;;;;17.70;100.00;101537.19;6294699;28;20052;-68
2023/08/24 04:39:18;;;;;;;6.40;2.47;;;;;;;17.73;100.00;101535.19;6293114;28;20496;-69
2023/08/24 04:42:19;;;;;;;2.85;2.35;;;;;;;17.76;100.00;101536.81;6301006;28;20044;-70
2023/08/24 04:45:22;;;;;;;4.45;2.65;;;;;;;17.79;100.00;101541.88;6299871;28;20040;-69
2023/08/24 04:48:25;;;;;;;3.60;2.42;;;;;;;17.80;100.00;101543.56;6301007;28;20135;-69
2023/08/24 04:51:29;;;;;;;3.25;2.22;;;;;;;17.74;100.00;101542.22;6300605;28;20047;-69
2023/08/24 04:54:30;;;;;;;3.45;2.38;;;;;;;17.74;100.00;101544.88;6300213;28;20352;-69
2023/08/24 04:57:31;;;;;;;12.65;3.47;;;;;;;17.75;100.00;101535.94;6300577;28;20428;-68
2023/08/24 05:00:34;;;;;;;4.90;3.10;;;;;;;17.81;100.00;101537.31;6300673;28;20049;-69
2023/08/24 05:03:36;;;;;;;4.20;2.40;;;;;;;17.84;100.00;101537.09;6300544;28;20053;-68
2023/08/24 05:06:37;;;;;;;6.90;3.35;;;;;;;17.78;100.00;101534.88;6300422;28;20045;-70
2023/08/24 05:09:39;;;;;;;4.60;2.97;;;;;;;17.77;100.00;101532.34;6300375;28;20041;-69
2023/08/24 05:12:40;;;;;;;3.75;2.13;;;;;;;17.75;100.00;101535.09;6300627;28;20055;-69
2023/08/24 05:15:43;;;;;;;4.60;2.70;;;;;;;17.73;100.00;101527.22;6300080;28;20051;-69
2023/08/24 05:18:44;;;;;;;4.22;2.80;;;;;;;17.73;100.00;101521.91;6300473;28;20056;-71
2023/08/24 05:21:46;;;;;;;4.93;2.70;;;;;;;17.73;100.00;101519.25;6300532;28;20194;-71
2023/08/24 05:24:48;;;;;;;3.53;2.03;;;;;;;17.77;100.00;101513.72;6300285;28;20048;-70
2023/08/24 05:27:50;;;;;;;2.80;2.17;;;;;;;17.78;100.00;101528.72;6300197;28;20048;-71
2023/08/24 05:30:53;;;;;;;2.88;2.30;;;;;;;17.76;100.00;101523.50;6300280;28;20060;-71
2023/08/24 05:33:54;;;;;;;4.47;3.47;;;;;;;17.72;100.00;101509.53;6300284;28;20059;-72
2023/08/24 05:36:56;;;;;;;7.22;3.72;;;;;;;17.73;100.00;101516.59;6299931;28;20040;-71
2023/08/24 05:39:57;;;;;;;7.78;4.07;;;;;;;17.74;100.00;101518.28;6300342;28;20186;-72
2023/08/24 05:42:58;;;;;;;5.00;3.70;;;;;;;17.77;100.00;101527.00;6300061;28;20064;-72
2023/08/24 05:46:02;;;;;;;7.65;4.22;;;;;;;17.74;100.00;101538.69;6299781;28;20048;-71
2023/08/24 05:49:04;;;;;;;7.95;4.50;;;;;;;17.74;100.00;101544.03;6300206;28;20102;-72
2023/08/24 05:52:05;;;;;;;9.02;4.32;;;;;;;17.75;100.00;101553.69;6300024;28;20048;-71
2023/08/24 05:55:07;;;;;;;5.50;4.25;;;;;;;17.75;100.00;101545.72;6320960;22;20049;-70
2023/08/24 05:58:09;;;;;;;7.35;4.93;;;;;;;17.78;100.00;101539.34;6300941;28;20044;-70
2023/08/24 06:01:12;;;;;;;7.78;4.63;;;;;;;17.79;100.00;101530.41;6296376;28;20056;-70
2023/08/24 06:04:13;;;;;;;8.55;5.20;;;;;;;17.82;100.00;101519.56;6299857;28;20433;-73
2023/08/24 06:07:14;;;;;;;10.05;5.60;;;;;;;17.82;100.00;101524.88;6304380;28;20051;-72
2023/08/24 06:10:16;;;;;;;12.85;5.82;;;;;;;17.84;100.00;101514.97;6304502;28;20052;-73
2023/08/24 06:13:17;;;;;;;8.25;5.88;;;;;;;17.91;100.00;101518.91;6304437;28;20101;-72
2023/08/24 06:16:20;;;;;;;13.73;6.97;;;;;;;17.93;100.00;101528.44;6303950;28;20040;-72
2023/08/24 06:19:22;;;;;;;12.48;6.90;;;;;;;17.95;100.00;101525.69;6296035;28;20352;-72
2023/08/24 06:22:23;;;;;;;10.00;6.40;;;;;;;17.97;100.00;101515.78;6291783;28;20436;-71
2023/08/24 06:25:24;;;;;;;14.27;8.38;;;;;;;18.00;100.00;101504.94;6296549;28;20071;-71
2023/08/24 06:28:26;;;;;;;9.93;5.60;;;;;;;18.07;100.00;101510.66;6291285;28;20049;-72
2023/08/24 06:31:30;;;;;;;10.88;5.45;;;;;;;18.14;100.00;101495.94;6294218;28;20052;-72
2023/08/24 06:34:31;;;;;;;10.75;5.40;;;;;;;18.20;100.00;101495.50;6302455;28;20360;-72
2023/08/24 06:37:32;;;;;;;13.70;6.72;;;;;;;18.23;100.00;101489.94;6299407;28;20453;-72
2023/08/24 06:40:34;;;;;;;14.70;7.82;;;;;;;18.24;100.00;101487.16;6296858;28;20040;-72
2023/08/24 06:43:38;;;;;;;14.50;7.00;;;;;;;18.28;100.00;101489.63;6290543;28;20053;-71
2023/08/24 06:46:41;;;;;;;9.20;5.50;;;;;;;18.33;100.00;101488.31;6292360;28;20049;-71
2023/08/24 06:49:42;;;;;;;11.85;7.53;;;;;;;18.39;100.00;101493.16;6295031;28;20358;-71
2023/08/24 06:52:44;;;;;;;11.38;6.38;;;;;;;18.44;100.00;101498.13;6291974;28;20060;-72
2023/08/24 06:55:47;;;;;;;13.25;7.07;;;;;;;18.52;100.00;101490.44;6290468;28;20044;-81
2023/08/24 06:58:49;;;;;;;11.65;5.50;;;;;;;18.50;100.00;101487.91;6286795;28;20048;-71
2023/08/24 07:01:52;;;;;;;8.98;4.70;;;;;;;18.51;100.00;101478.09;6291927;28;20041;-71
2023/08/24 07:04:53;;;;;;;16.98;5.80;;;;;;;18.50;100.00;101479.91;6292832;28;20406;-71
2023/08/24 07:07:55;;;;;;;11.88;4.93;;;;;;;18.46;100.00;101470.47;6289928;28;20067;-72
2023/08/24 07:10:56;;;;;;;6.82;4.32;;;;;;;18.50;100.00;101466.59;6288223;28;20049;-72
2023/08/24 07:13:58;;;;;;;8.13;4.18;;;;;;;18.58;100.00;101462.53;6296905;28;20470;-71
2023/08/24 07:17:00;;;;;;;6.72;3.35;;;;;;;18.61;100.00;101455.13;6302832;28;20123;-71
2023/08/24 07:20:05;;;;;;;8.55;3.70;;;;;;;18.67;100.00;101454.69;6292964;28;20134;-72
2023/08/24 07:23:06;;;;;;;7.63;3.58;;;;;;;18.71;100.00;101444.66;6293340;28;20086;-71
2023/08/24 07:26:09;;;;;;;3.00;2.20;;;;;;;18.78;100.00;101435.25;6289744;28;20356;-72
2023/08/24 07:29:10;;;;;;;4.40;2.25;;;;;;;18.85;100.00;101430.28;6299577;28;20052;-73
2023/08/24 07:32:13;;;;;;;5.90;2.55;;;;;;;18.89;100.00;101435.25;6302039;28;20040;-72
2023/08/24 07:35:14;;;;;;;4.60;2.53;;;;;;;18.91;100.00;101433.34;6301082;28;20064;-72
2023/08/24 07:38:15;;;;;;;4.55;2.65;;;;;;;18.94;100.00;101437.56;6301817;28;20051;-71
2023/08/24 07:41:18;;;;;;;3.95;1.83;;;;;;;18.98;100.00;101434.53;6301149;28;20056;-72
2023/08/24 07:44:19;;;;;;;7.13;2.90;;;;;;;19.01;100.00;101430.81;6300130;28;20444;-72
2023/08/24 07:47:22;;;;;;;4.95;2.42;;;;;;;19.05;100.00;101420.75;6301118;28;20048;-72
2023/08/24 07:50:23;;;;;;;4.88;2.30;;;;;;;19.11;100.00;101434.44;6302209;28;20049;-73
2023/08/24 07:53:25;;;;;;;3.15;1.80;;;;;;;19.17;100.00;101438.47;6301050;28;20041;-72
2023/08/24 07:56:26;;;;;;;5.00;1.80;;;;;;;19.21;100.00;101440.75;6299642;28;20045;-72
2023/08/24 07:59:28;;;;;;;1.88;1.50;;;;;;;19.27;100.00;101437.59;6302438;28;20114;-71
2023/08/24 08:02:32;;;;;;;2.78;1.52;;;;;;;19.30;100.00;101435.66;6300164;28;20075;-73
2023/08/24 08:05:33;;;;;;;3.47;1.63;;;;;;;19.33;100.00;101438.09;6300744;28;20044;-72
2023/08/24 08:08:35;;;;;;;7.00;2.17;;;;;;;19.33;100.00;101432.75;6297194;28;20424;-72
2023/08/24 08:11:36;;;;;;;1.67;1.30;;;;;;;19.40;100.00;101421.50;6296138;28;20052;-73
2023/08/24 08:14:38;;;;;;;2.40;1.33;;;;;;;19.43;100.00;101437.22;6287695;28;20441;-72
2023/08/24 08:17:42;;;;;;;3.92;1.90;;;;;;;19.46;100.00;101437.00;6289187;28;20041;-73
2023/08/24 08:20:43;;;;;;;2.28;1.50;;;;;;;19.52;100.00;101424.97;6288585;28;20099;-72
2023/08/24 08:23:45;;;;;;;3.78;1.85;;;;;;;19.55;100.00;101429.22;6288235;28;20056;-72
2023/08/24 08:26:46;;;;;;;4.90;2.17;;;;;;;19.50;100.00;101422.44;6286678;28;20479;-71
2023/08/24 08:29:48;;;;;;;2.80;1.50;;;;;;;19.54;100.00;101425.72;6284377;28;20048;-72
2023/08/24 08:32:52;;;;;;;5.65;1.70;;;;;;;19.58;100.00;101431.66;6290027;28;20049;-72
2023/08/24 08:35:53;;;;;;;5.95;2.35;;;;;;;19.63;100.00;101416.16;6291475;28;20052;-72
2023/08/24 08:38:54;;;;;;;4.25;1.63;;;;;;;19.70;100.00;101426.19;6287598;28;20060;-72
2023/08/24 08:41:56;;;;;;;4.85;1.83;;;;;;;19.77;100.00;101426.56;6290603;28;20049;-72
2023/08/24 08:45:02;;;;;;;1.65;1.55;;;;;;;19.77;100.00;101422.06;6295329;28;20044;-73
2023/08/24 08:48:07;;;;;;;1.85;1.50;;;;;;;19.84;100.00;101413.56;6292379;28;20434;-72
2023/08/24 08:51:10;;;;;;;2.90;1.60;;;;;;;19.89;100.00;101414.03;6294359;28;20048;-68
2023/08/24 08:54:12;;;;;;;1.77;1.45;;;;;;;19.95;100.00;101403.72;6290448;28;20110;-71
2023/08/24 08:57:17;;;;;;;2.85;2.13;;;;;;;19.97;100.00;101412.41;6299597;28;20048;-73
2023/08/24 09:00:19;;;;;;;4.18;2.28;;;;;;;20.15;100.00;101410.06;6296441;28;20440;-72
2023/08/24 09:03:22;;;;;;;4.65;1.52;;;;;;;20.24;100.00;101405.78;6294678;28;20365;-73
2023/08/24 09:06:23;;;;;;;3.67;1.85;;;;;;;20.25;100.00;101410.13;6293972;28;20055;-73
2023/08/24 09:09:26;;;;;;;3.70;1.95;;;;;;;20.31;100.00;101398.97;6290182;28;20048;-73
2023/08/24 09:12:31;;;;;;;3.40;1.70;;;;;;;20.41;100.00;101407.88;6300235;28;20049;-73
2023/08/24 09:15:36;;;;;;;17.50;10.20;;;;;;;20.45;100.00;101403.13;6300152;28;20048;-73
2023/08/24 09:18:40;;;;;;;6.95;3.00;;;;;;;20.52;100.00;101393.63;6298709;28;20107;-74
2023/08/24 09:21:41;;;;;;;3.22;1.85;;;;;;;20.54;100.00;101382.84;6300176;28;20048;-73
2023/08/24 09:24:43;;;;;;;2.33;1.40;;;;;;;20.53;100.00;101374.00;6299982;28;20058;-70
2023/08/24 09:27:44;;;;;;;2.63;1.50;;;;;;;20.60;100.00;101393.00;6299886;28;20048;-71
2023/08/24 09:30:46;;;;;;;3.28;1.63;;;;;;;20.62;100.00;101393.69;6299947;28;20044;-73
2023/08/24 09:33:49;;;;;;;4.55;1.70;;;;;;;20.67;100.00;101380.81;6299845;28;20084;-71
2023/08/24 09:36:50;;;;;;;2.78;1.60;;;;;;;20.74;100.00;101365.94;6298414;28;20051;-72
2023/08/24 09:40:01;;;;;;;1.95;1.48;;;;;;;20.84;100.00;101348.13;6299633;28;20049;-71
2023/08/24 09:43:04;;;;;;;2.13;1.25;;;;;;;20.93;100.00;101351.81;6296276;28;20056;-70
2023/08/24 09:46:07;;;;;;;3.90;1.55;;;;;;;20.94;100.00;101346.38;6291314;28;20455;-70
2023/08/24 09:49:11;;;;;;;1.95;1.42;;;;;;;21.12;100.00;101343.03;6294426;28;20053;-72
2023/08/24 09:52:14;;;;;;;3.28;1.60;;;;;;;21.25;100.00;101330.28;6297436;28;20448;-71
2023/08/24 09:55:22;;;;;;;2.63;1.58;;;;;;;21.28;100.00;101330.00;6290643;28;20052;-71
2023/08/24 09:58:24;;;;;;;3.67;1.30;;;;;;;21.45;100.00;101313.34;6287039;28;20045;-71
2023/08/24 10:01:26;;;;;;;4.55;2.08;;;;;;;21.57;100.00;101314.03;6287962;28;20451;-71
2023/08/24 10:04:30;;;;;;;2.08;1.50;;;;;;;21.57;100.00;101306.00;6295475;28;20044;-71
2023/08/24 10:07:33;;;;;;;2.55;1.38;;;;;;;21.67;100.00;101290.84;6298594;28;20036;-71
2023/08/24 10:10:36;;;;;;;2.65;1.67;;;;;;;21.73;100.00;101287.59;6299024;28;20044;-71
2023/08/24 10:13:43;;;;;;;1.52;1.42;;;;;;;21.84;100.00;101281.22;6298735;28;20044;-71
2023/08/24 10:16:46;;;;;;;2.28;1.65;;;;;;;22.05;100.00;101278.41;6295027;28;20045;-72
2023/08/24 10:19:53;;;;;;;1.80;1.40;;;;;;;22.05;100.00;101283.75;6299367;28;20186;-71
2023/08/24 10:22:54;;;;;;;2.25;1.65;;;;;;;22.18;100.00;101288.84;6298450;28;20045;-71
2023/08/24 10:25:56;;;;;;;3.17;1.70;;;;;;;22.11;100.00;101285.84;6298320;28;20045;-71
2023/08/24 10:28:58;;;;;;;2.00;1.42;;;;;;;22.10;100.00;101278.81;6299229;28;20046;-71
2023/08/24 10:32:00;;;;;;;2.63;1.75;;;;;;;22.16;100.00;101275.59;6294131;28;20045;-72
2023/08/24 10:35:03;;;;;;;1.83;1.45;;;;;;;22.28;100.00;101265.56;6298492;28;20055;-71
2023/08/24 10:38:06;;;;;;;3.72;1.70;;;;;;;22.42;100.00;101264.25;6299170;28;20456;-70
2023/08/24 10:41:07;;;;;;;2.47;1.38;;;;;;;22.55;100.00;101262.09;6291344;28;20075;-71
2023/08/24 10:44:21;;;;;;;2.85;1.35;;;;;;;22.58;100.00;101258.28;6301063;28;20137;-71
2023/08/24 10:47:24;;;;;;;3.38;1.60;;;;;;;22.54;100.00;101258.56;6302842;28;20048;-71
2023/08/24 10:50:26;;;;;;;3.30;1.65;;;;;;;22.60;100.00;101261.66;6301332;28;20060;-71
2023/08/24 10:53:40;;;;;;;7.70;2.42;;;;;;;22.60;100.00;101262.50;6299443;28;20056;-71
2023/08/24 10:56:53;;;;;;;3.08;2.20;;;;;;;22.64;100.00;101271.09;6302385;28;20088;-71
2023/08/24 11:00:00;;;;;;;6.05;1.52;;;;;;;22.80;100.00;101276.66;6302168;28;20049;-75
2023/08/24 11:03:01;;;;;;;2.17;1.40;;;;;;;22.84;100.00;101269.16;6294108;28;20462;-72
2023/08/24 11:06:18;;;;;;;3.30;1.60;;;;;;;22.90;100.00;101256.03;6293629;28;20045;-73
2023/08/24 11:09:20;;;;;;;4.90;1.45;;;;;;;22.87;100.00;101260.81;6295342;28;20048;-73
2023/08/24 11:12:22;;;;;;;2.22;1.60;;;;;;;22.86;100.00;101253.78;6301881;28;20131;-73
2023/08/24 11:15:30;;;;;;;2.38;1.70;;;;;;;22.93;100.00;101250.38;6302615;28;20048;-73
2023/08/24 11:18:32;;;;;;;1.60;1.50;;;;;;;22.91;100.00;101233.59;6302936;28;20552;-74
2023/08/24 11:21:36;;;;;;;2.58;1.60;;;;;;;22.91;100.00;101224.72;6302389;28;20044;-74
2023/08/24 11:24:37;;;;;;;2.85;1.60;;;;;;;22.93;100.00;101222.72;6300957;28;20047;-72
2023/08/24 11:27:41;;;;;;;2.80;2.00;;;;;;;22.98;100.00;101231.16;6302683;28;20178;-80
2023/08/24 11:30:44;;;;;;;2.40;2.00;;;;;;;23.17;100.00;101227.53;6302579;28;20344;-78
2023/08/24 11:33:45;;;;;;;2.17;1.98;;;;;;;23.28;100.00;101213.88;6302592;28;20059;-74
2023/08/24 11:36:48;;;;;;;2.50;1.88;;;;;;;23.33;100.00;101202.69;6302200;28;20048;-73
2023/08/24 11:39:50;;;;;;;3.35;1.73;;;;;;;23.36;100.00;101187.13;6302760;28;20040;-74
2023/08/24 11:42:54;;;;;;;3.70;2.10;;;;;;;23.57;100.00;101177.91;6301691;28;20047;-70
2023/08/24 11:45:56;;;;;;;4.50;2.25;;;;;;;23.69;100.00;101177.53;6301411;28;20049;-70
2023/08/24 11:48:59;;;;;;;2.30;1.73;;;;;;;23.83;100.00;101157.31;6301948;28;20056;-70
2023/08/24 11:52:02;;;;;;;3.28;2.08;;;;;;;23.94;100.00;101158.91;6301851;28;20072;-71
2023/08/24 11:55:06;;;;;;;3.15;1.70;;;;;;;24.08;100.00;101161.00;6330863;22;20044;-70
2023/08/24 11:58:14;;;;;;;5.07;1.80;;;;;;;24.19;100.00;101143.75;6322575;28;20040;-70
2023/08/24 12:01:17;;;;;;;2.38;1.70;;;;;;;24.31;100.00;101131.75;6326533;28;20052;-70
2023/08/24 12:04:18;;;;;;;2.20;1.70;;;;;;;24.35;100.00;101130.41;6326651;28;20149;-70
2023/08/24 12:07:21;;;;;;;1.92;1.48;;;;;;;24.50;100.00;101128.81;6327009;28;20044;-70
2023/08/24 12:10:23;;;;;;;2.53;1.48;;;;;;;24.70;100.00;101133.91;6327222;28;20054;-70
2023/08/24 12:13:24;;;;;;;3.45;2.00;;;;;;;24.89;100.00;101141.69;6326586;28;20048;-70
2023/08/24 12:16:27;;;;;;;2.08;1.48;;;;;;;25.08;100.00;101139.72;6326516;28;20048;-70
2023/08/24 12:19:28;;;;;;;4.47;1.58;;;;;;;25.17;100.00;101122.59;6326600;28;20097;-70
2023/08/24 12:22:31;;;;;;;5.15;1.73;;;;;;;25.20;100.00;101119.53;6326025;28;20044;-70
2023/08/24 12:25:37;;;;;;;5.20;1.80;;;;;;;25.13;100.00;101116.69;6324726;28;20048;-69
2023/08/24 12:28:38;;;;;;;2.00;1.67;;;;;;;25.10;100.00;101105.41;6326290;28;20044;-70
2023/08/24 12:31:43;;;;;;;2.92;1.85;;;;;;;25.18;100.00;101092.81;6324919;28;20424;-70
2023/08/24 12:34:44;;;;;;;4.40;1.95;;;;;;;25.24;100.00;101075.97;6326018;28;20048;-70
2023/08/24 12:37:47;;;;;;;3.22;1.75;;;;;;;25.24;100.00;101080.53;6325385;28;20044;-70
2023/08/24 12:40:48;;;;;;;9.10;2.08;;;;;;;25.47;100.00;101077.97;6325381;28;20055;-70
2023/08/24 12:43:51;;;;;;;3.85;2.03;;;;;;;25.78;100.00;101076.25;6325772;28;20066;-73
2023/08/24 12:46:52;;;;;;;4.82;1.83;;;;;;;26.04;100.00;101075.16;6325238;28;20048;-70
2023/08/24 12:49:55;;;;;;;2.17;1.98;;;;;;;26.26;100.00;101071.69;6326123;28;20047;-71
2023/08/24 12:53:00;;;;;;;4.38;2.33;;;;;;;26.45;100.00;101081.22;6324872;28;20353;-71
2023/08/24 12:56:01;;;;;;;2.10;1.40;;;;;;;26.60;100.00;101080.44;6325253;28;20051;-72
2023/08/24 12:59:02;;;;;;;6.18;2.08;;;;;;;26.76;100.00;101066.88;6325772;28;20048;-71
2023/08/24 13:02:04;;;;;;;2.35;1.70;;;;;;;26.98;100.00;101060.63;6325286;28;20044;-73
2023/08/24 13:05:06;;;;;;;3.45;1.88;;;;;;;27.16;100.00;101063.03;6323807;28;20394;-71
2023/08/24 13:08:09;;;;;;;2.22;1.38;;;;;;;27.22;96.90;101058.75;6315898;28;20040;-73
2023/08/24 13:11:11;;;;;;;2.30;1.42;;;;;;;27.54;96.74;101063.81;6324133;28;20047;-70
2023/08/24 13:14:12;;;;;;;1.88;1.30;;;;;;;27.51;100.00;101061.47;6325198;28;20074;-71
2023/08/24 13:17:14;;;;;;;1.88;1.50;;;;;;;27.38;100.00;101063.13;6324437;28;20451;-70
2023/08/24 13:20:16;;;;;;;1.88;1.42;;;;;;;27.33;99.64;101055.59;6325410;28;20333;-71
2023/08/24 13:23:19;;;;;;;4.78;1.77;;;;;;;27.31;100.00;101054.94;6325233;28;20060;-70
2023/08/24 13:26:23;;;;;;;2.53;1.75;;;;;;;27.44;100.00;101049.75;6324785;28;20059;-71
2023/08/24 13:29:24;;;;;;;2.70;1.60;;;;;;;27.64;96.83;101047.34;6324525;28;20043;-71
2023/08/24 13:32:25;;;;;;;2.10;1.63;;;;;;;27.81;96.60;101048.03;6323636;28;20048;-70
2023/08/24 13:35:27;;;;;;;1.95;1.48;;;;;;;27.91;98.78;101037.75;6324804;28;20051;-70
2023/08/24 13:38:29;;;;;;;1.83;1.33;;;;;;;28.01;64.53;101027.50;6324947;28;20474;-71
2023/08/24 13:41:31;;;;;;;2.45;1.30;;;;;;;28.01;62.97;101026.66;6324644;28;20055;-70
2023/08/24 13:44:32;;;;;;;2.60;1.30;;;;;;;27.99;63.68;101029.56;6323997;28;20454;-70
2023/08/24 13:47:34;;;;;;;2.50;1.25;;;;;;;27.75;59.12;101029.84;6322392;28;20336;-70
2023/08/24 13:50:35;;;;;;;5.40;1.35;;;;;;;27.75;65.10;101021.75;6324076;28;20344;-71
2023/08/24 13:53:38;;;;;;;3.42;1.60;;;;;;;27.69;62.84;101009.81;6325004;28;20051;-71
2023/08/24 13:56:39;;;;;;;2.60;1.20;;;;;;;27.40;64.42;101005.25;6323671;28;20052;-72
2023/08/24 13:59:41;;;;;;;3.15;1.50;;;;;;;27.19;68.81;100991.66;6324075;28;20047;-72